Bei Facebook empfehlenBei Twitter postenGoogle plusPinterest

Das Wetter im Erzgebirge am 15.08.2017

Wetter und Klima am 15.08.2017 Holzhau im Erzgebirge (630m ü.NN)
Letzte gemessene Temperatur und Uhrzeit der Messung23:45:00 Uhr18.10 °C
Temperatur (Maximum / Höchstwert) und Uhrzeit der Messung17:15:00 Uhr26.40 °C
Temperatur (Minimum / Tiefstwert) und Uhrzeit der Messung02:00:009.40 °C
Errechneter Absolutwert der Temperaturschwankungen zwischen Tmin und Tmax des Tages17.00 K
Errechnete Tagesmitteltemperatur18.61146 °C
Gesamt - Niederschlag des Tages (in flüssiger Form)0.00 Liter / m²
Luftdruck (Maximum / Höchstwert) und Zeitpunkt der Messung01:15:00 Uhr1019.60 hPa
Luftdruck (Minimum / Tiefstwert) und Zeitpunkt der Messung23:30:00 Uhr1014.90 hPa
Errechneter Absolutwert der Luftdruckschwankungen des Tages4.70 hPa
Höchste gemessene Windgeschwindigkeit und Uhrzeit der Messung12:00:00 Uhr660.96 km/h
Errechnete Windhäufigkeit in Relation zu den Messwerten des Tages32.29167 %
Niedrigste Windkühle (Windchill) und Zeitpunkt der Messung02:00:00 Uhr9.40 °C
Taupunkt (Maximum / Höchstwert) und Uhrzeit der Messung15:45:00 Uhr15.80 °C
Taupunkt (Minimum / Tiefstwert) und Uhrzeit der Messung02:00:007.50 °C
Anzahl der automatisch eingelesenen Messwerte 96

Detaillierte Wetter- und Klima- Messwerte für den 15.08.2017 in Holzhau im Erzgebirge (630m ü.NN)
ZeitTemperaturLuftdruckRel. LuftfeuchteWindWindrichtungWindchillTaupunktNiederschlag l/m²
23:45:0018.10 °C1015.00 hPa72.00 %13.00 °C 
23:30:0018.40 °C1014.90 hPa71.00 %11.52 km/hSSO18.40 °C13.10 °C 
23:15:0018.60 °C1015.10 hPa71.00 %13.20 °C 
23:00:0018.70 °C1015.30 hPa71.00 %13.30 °C 
22:45:0018.80 °C1015.30 hPa71.00 %13.40 °C 
22:30:0018.90 °C1015.40 hPa70.00 %13.30 °C 
22:15:0018.90 °C1015.50 hPa70.00 %13.30 °C 
22:00:0019.00 °C1015.50 hPa70.00 %13.40 °C 
21:45:0018.80 °C1015.70 hPa71.00 %13.40 °C 
21:30:0018.50 °C1016.00 hPa72.00 %13.40 °C 
21:15:0018.40 °C1016.10 hPa73.00 %13.50 °C 
21:00:0018.70 °C1016.30 hPa71.00 %13.30 °C 
20:45:0019.10 °C1016.20 hPa70.00 %13.50 °C 
20:30:0019.90 °C1016.30 hPa68.00 %13.80 °C 
20:15:0020.50 °C1016.60 hPa67.00 %14.20 °C 
20:00:0020.80 °C1016.70 hPa66.00 %14.20 °C 
19:45:0021.20 °C1016.50 hPa66.00 %14.60 °C 
19:30:0021.90 °C1016.60 hPa63.00 %14.50 °C 
19:15:0022.80 °C1016.40 hPa60.00 %14.60 °C 
19:00:0023.60 °C1016.60 hPa58.00 %14.90 °C 
18:45:0024.20 °C1016.50 hPa55.00 %14.60 °C 
18:30:0024.80 °C1016.60 hPa54.00 %21.96 km/hSSO26.50 °C14.90 °C 
18:15:0025.30 °C1016.70 hPa54.00 %15.30 °C 
18:00:0025.80 °C1016.90 hPa52.00 %15.20 °C 
17:45:0026.30 °C1016.90 hPa50.00 %15.00 °C 
17:30:0026.20 °C1016.90 hPa52.00 %15.60 °C 
17:15:0026.40 °C1016.90 hPa51.00 %30.96 km/hSW28.30 °C15.40 °C 
17:00:0026.40 °C1016.80 hPa51.00 %15.40 °C 
16:45:0026.20 °C1017.00 hPa52.00 %14.40 km/hSO26.20 °C15.60 °C 
16:30:0026.20 °C1017.00 hPa52.00 %51.84 km/hSO27.90 °C15.60 °C 
16:15:0026.10 °C1017.20 hPa52.00 %18.00 km/hONO28.00 °C15.50 °C 
16:00:0026.00 °C1017.50 hPa52.00 %6.48 km/hSO26.00 °C15.40 °C 
15:45:0026.10 °C1017.30 hPa53.00 %25.92 km/hSO27.90 °C15.80 °C 
15:30:0025.80 °C1017.20 hPa54.00 %5.04 km/hSW25.80 °C15.80 °C 
15:15:0025.60 °C1017.40 hPa51.00 %16.92 km/hS25.60 °C14.70 °C 
15:00:0025.40 °C1017.20 hPa52.00 %38.88 km/hSO27.00 °C14.80 °C 
14:45:0025.40 °C1017.50 hPa52.00 %14.80 °C 
14:30:0025.20 °C1017.60 hPa52.00 %14.60 °C 
14:15:0025.20 °C1017.60 hPa53.00 %36.36 km/hWSW26.80 °C14.90 °C 
14:00:0025.00 °C1017.40 hPa51.00 %14.20 °C 
13:45:0025.20 °C1017.70 hPa51.00 %14.40 km/hOSO25.20 °C14.30 °C 
13:30:0025.20 °C1017.60 hPa52.00 %32.40 km/hOSO26.80 °C14.60 °C 
13:15:0025.20 °C1017.80 hPa51.00 %14.30 °C 
13:00:0025.00 °C1017.90 hPa54.00 %5.04 km/hW25.00 °C15.00 °C 
12:45:0024.60 °C1017.90 hPa55.00 %6.48 km/hSSO24.60 °C15.00 °C 
12:30:0024.20 °C1017.60 hPa57.00 %27.36 km/hNNO25.70 °C15.10 °C 
12:15:0023.80 °C1017.50 hPa57.00 %5.04 km/hOSO23.80 °C14.80 °C 
12:00:0023.60 °C1017.70 hPa55.00 %660.96 km/hS23.20 °C14.00 °C 
11:45:0023.80 °C1017.50 hPa56.00 %14.50 °C 
11:30:0023.40 °C1017.60 hPa57.00 %15.48 km/hSSO23.40 °C14.40 °C 
11:15:0022.60 °C1017.30 hPa59.00 %20.88 km/hNO24.00 °C14.20 °C 
11:00:0022.50 °C1017.50 hPa59.00 %5.04 km/hOSO22.50 °C14.10 °C 
10:45:0022.60 °C1017.10 hPa61.00 %40.32 km/hOSO23.60 °C14.70 °C 
10:30:0022.30 °C1017.10 hPa62.00 %14.70 °C 
10:15:0021.90 °C1017.30 hPa61.00 %14.00 °C 
10:00:0021.50 °C1017.50 hPa63.00 %20.88 km/hSO22.70 °C14.20 °C 
09:45:0020.90 °C1017.70 hPa66.00 %14.30 °C 
09:30:0020.30 °C1017.60 hPa69.00 %14.40 °C 
09:15:0019.70 °C1017.90 hPa72.00 %32.40 km/hOSO20.30 °C14.50 °C 
09:00:0018.90 °C1018.00 hPa75.00 %2.52 km/hSSO18.90 °C14.40 °C 
08:45:0018.30 °C1018.00 hPa76.00 %14.00 °C 
08:30:0017.60 °C1018.00 hPa79.00 %13.90 °C 
08:15:0016.90 °C1018.30 hPa81.00 %13.60 °C 
08:00:0015.90 °C1018.20 hPa83.00 %13.00 °C 
07:45:0014.90 °C1018.30 hPa85.00 %12.40 °C 
07:30:0013.80 °C1018.30 hPa88.00 %11.80 °C 
07:15:0012.50 °C1018.30 hPa90.00 %10.90 °C 
07:00:0011.90 °C1018.30 hPa90.00 %10.30 °C 
06:45:0011.80 °C1018.30 hPa90.00 %10.20 °C 
06:30:0011.50 °C1018.00 hPa90.00 %9.90 °C 
06:15:0011.40 °C1018.20 hPa90.00 %9.80 °C 
06:00:0011.30 °C1018.10 hPa90.00 %9.70 °C 
05:45:0011.30 °C1018.20 hPa89.00 %9.60 °C 
05:30:0011.40 °C1018.50 hPa89.00 %9.70 °C 
05:15:0011.40 °C1018.40 hPa90.00 %9.00 km/hSO11.40 °C9.80 °C 
05:00:0011.30 °C1018.40 hPa90.00 %9.70 °C 
04:45:0011.20 °C1018.40 hPa90.00 %9.60 °C 
04:30:0011.10 °C1018.60 hPa90.00 %9.50 °C 
04:15:0011.10 °C1018.70 hPa90.00 %9.50 °C 
04:00:0011.10 °C1018.60 hPa90.00 %9.50 °C 
03:45:0011.10 °C1018.70 hPa91.00 %7.92 km/hS11.10 °C9.70 °C 
03:30:0011.20 °C1018.80 hPa91.00 %9.80 °C 
03:15:0011.00 °C1018.90 hPa91.00 %9.60 °C 
03:00:0010.90 °C1019.10 hPa91.00 %9.50 °C 
02:45:0010.60 °C1019.00 hPa91.00 %9.20 °C 
02:30:009.90 °C1019.10 hPa90.00 %8.30 °C 
02:15:009.80 °C1019.30 hPa90.00 %8.20 °C 
02:00:009.40 °C1019.40 hPa88.00 %7.50 °C 
01:45:009.60 °C1019.40 hPa88.00 %7.70 °C 
01:30:009.90 °C1019.40 hPa88.00 %8.00 °C 
01:15:0010.10 °C1019.60 hPa88.00 %8.20 °C 
01:00:0010.10 °C1019.50 hPa87.00 %10.44 km/hSO10.10 °C8.00 °C 
00:45:0010.30 °C1019.50 hPa87.00 %6.48 km/hSO10.30 °C8.20 °C 
00:30:0010.40 °C1019.50 hPa88.00 %8.50 °C 
00:15:0010.10 °C1019.60 hPa88.00 %6.48 km/hSO10.10 °C8.20 °C 
00:00:0010.20 °C1019.60 hPa87.00 %8.10 °C 

Permanenter Link zu dieser Seite: Wetter im Erzgebirge am 15.08.2017
Performance-Info: Die Erstellung der Seite / Statistik(en) / Tabelle(n) erforderte 5 Datenbankserver-Abfrage(n) und dauerte 70 Millisekunden. (Dieser Messwert ist von der Gesamt-Auslastung des Servers abhängig.)
Erzgebirge - Wetter | Erzgebirge - Wetter (Mobilgeräte) | Komplette Klimadatenbank